Time;durP1;ratioP1;P1;durP2;ratioP2;P2;SDS_P1;SDS_P2;PMS_P1;PMS_P2;Temp;Humidity;BMP_temperature;BMP_pressure;BME280_temperature;BME280_humidity;BME280_pressure;Samples;Min_cycle;Max_cycle;Signal;HPM_P1;HPM_P2
2022/12/05 00:00:15;;;;;;;0.50;0.40;;;2.80;99.90;;;;;;5055792;28;20888;-76
2022/12/05 00:02:43;;;;;;;0.70;0.70;;;2.80;99.90;;;;;;5064089;28;20292;-80
2022/12/05 00:05:11;;;;;;;1.70;1.70;;;2.90;99.90;;;;;;5072404;28;20236;-79
2022/12/05 00:07:38;;;;;;;9.38;3.60;;;2.90;99.90;;;;;;5057514;28;20253;-77
2022/12/05 00:10:06;;;;;;;2.83;2.72;;;3.00;99.90;;;;;;5055507;28;20201;-79
2022/12/05 00:12:33;;;;;;;5.67;5.30;;;2.90;99.90;;;;;;5016673;28;1117487;-80
2022/12/05 00:15:00;;;;;;;2.88;2.63;;;2.90;99.90;;;;;;5065131;28;20992;-79
2022/12/05 00:17:27;;;;;;;0.98;0.98;;;2.80;99.90;;;;;;5062425;28;20213;-80
2022/12/05 00:19:55;;;;;;;3.15;3.05;;;2.80;99.90;;;;;;5065142;28;20197;-80
2022/12/05 00:22:22;;;;;;;0.50;0.40;;;2.90;99.90;;;;;;5075823;28;21492;-79
2022/12/05 00:24:48;;;;;;;3.50;3.30;;;2.90;99.90;;;;;;5054671;28;20286;-79
2022/12/05 00:27:15;;;;;;;1.42;1.30;;;2.90;99.90;;;;;;5054782;28;20282;-80
2022/12/05 00:29:42;;;;;;;2.55;2.35;;;2.90;99.90;;;;;;5055497;28;20194;-78
2022/12/05 00:32:09;;;;;;;1.15;1.05;;;2.90;99.90;;;;;;5055475;28;20194;-79
2022/12/05 00:34:36;;;;;;;0.50;0.50;;;2.90;99.90;;;;;;5056301;28;20704;-80
2022/12/05 00:37:04;;;;;;;4.35;3.92;;;2.90;99.90;;;;;;5075300;28;20216;-79
2022/12/05 00:39:31;;;;;;;16.02;3.13;;;2.90;99.90;;;;;;5074031;28;20196;-80
2022/12/05 00:41:58;;;;;;;4.63;2.72;;;2.90;99.90;;;;;;5078972;28;20671;-82
2022/12/05 00:44:25;;;;;;;2.28;1.73;;;2.80;99.90;;;;;;5076071;28;20218;-81
2022/12/05 00:46:51;;;;;;;1.77;1.67;;;2.90;99.90;;;;;;5079238;28;20200;-80
2022/12/05 00:49:18;;;;;;;1.73;1.58;;;2.90;99.90;;;;;;5077482;28;20672;-81
2022/12/05 00:51:45;;;;;;;2.65;2.45;;;2.90;99.90;;;;;;5070929;28;20258;-80
2022/12/05 00:54:15;;;;;;;0.60;0.50;;;2.90;99.90;;;;;;5078972;28;20300;-80
2022/12/05 00:56:43;;;;;;;1.30;1.20;;;2.90;99.90;;;;;;5078499;28;20312;-79
2022/12/05 00:59:14;;;;;;;4.18;3.47;;;2.90;99.90;;;;;;5073321;28;20212;-81
2022/12/05 01:01:42;;;;;;;0.50;0.40;;;2.80;99.90;;;;;;5072689;28;20254;-80
2022/12/05 01:04:12;;;;;;;0.50;0.50;;;2.80;99.90;;;;;;5070387;28;20238;-80
2022/12/05 01:06:39;;;;;;;1.75;1.65;;;2.80;99.90;;;;;;5077219;28;20273;-80
2022/12/05 01:09:06;;;;;;;0.50;0.40;;;2.90;99.90;;;;;;5079294;28;20294;-81
2022/12/05 01:11:35;;;;;;;1.45;1.35;;;2.90;99.90;;;;;;5077119;28;20220;-79
2022/12/05 01:14:01;;;;;;;2.45;2.35;;;2.90;99.90;;;;;;5072810;28;20296;-80
2022/12/05 01:16:32;;;;;;;0.75;0.75;;;2.90;99.90;;;;;;5066632;28;20190;-82
2022/12/05 01:19:01;;;;;;;2.13;1.98;;;3.00;99.90;;;;;;5058737;28;20186;-80
2022/12/05 01:21:28;;;;;;;1.45;1.35;;;2.90;99.90;;;;;;5060851;28;20290;-82
2022/12/05 01:23:55;;;;;;;1.20;1.13;;;2.90;99.90;;;;;;5069824;28;20218;-77
2022/12/05 01:26:22;;;;;;;1.13;1.05;;;2.80;99.90;;;;;;5071133;28;20293;-81
2022/12/05 01:28:51;;;;;;;1.83;1.73;;;2.90;99.90;;;;;;5078242;28;20281;-80
2022/12/05 01:31:22;;;;;;;0.50;0.50;;;3.00;99.90;;;;;;5078835;28;20280;-79
2022/12/05 01:33:49;;;;;;;0.50;0.40;;;3.00;99.90;;;;;;5076013;28;20228;-80
2022/12/05 01:36:16;;;;;;;1.25;0.88;;;3.10;99.90;;;;;;5072641;28;20198;-80
2022/12/05 01:38:43;;;;;;;0.88;0.88;;;3.10;99.90;;;;;;5071114;28;20245;-79
2022/12/05 01:41:14;;;;;;;1.05;0.90;;;3.10;99.90;;;;;;5082686;28;20273;-79
2022/12/05 01:43:59;;;;;;;1.80;1.67;;;3.10;99.90;;;;;;5072826;28;20741;-80
2022/12/05 01:46:27;;;;;;;1.60;1.50;;;3.00;99.90;;;;;;5083169;28;20198;-79
2022/12/05 01:49:01;;;;;;;5.22;3.63;;;3.00;99.90;;;;;;5082686;28;20193;-76
2022/12/05 01:51:28;;;;;;;0.50;0.50;;;3.00;99.90;;;;;;5076431;28;20540;-78
2022/12/05 01:53:55;;;;;;;1.88;1.77;;;3.10;99.90;;;;;;5055550;28;20210;-79
2022/12/05 01:56:22;;;;;;;0.50;0.43;;;3.10;99.90;;;;;;5057764;28;20194;-79
2022/12/05 01:58:49;;;;;;;2.20;1.63;;;3.00;99.90;;;;;;5059631;28;20219;-79
2022/12/05 02:01:18;;;;;;;2.25;1.40;;;2.90;99.90;;;;;;5076064;28;20225;-78
2022/12/05 02:03:48;;;;;;;4.15;2.85;;;2.90;99.90;;;;;;5086851;28;20217;-77
2022/12/05 02:06:14;;;;;;;3.17;2.97;;;3.00;99.90;;;;;;5079167;28;20201;-80
2022/12/05 02:08:42;;;;;;;1.88;1.77;;;2.90;99.90;;;;;;5074276;28;20269;-79
2022/12/05 02:11:09;;;;;;;4.95;3.10;;;3.00;99.90;;;;;;5077233;28;20200;-80
2022/12/05 02:13:54;;;;;;;1.83;1.65;;;2.90;99.90;;;;;;5082008;28;20283;-80
2022/12/05 02:16:35;;;;;;;0.95;0.95;;;2.90;99.90;;;;;;5084044;28;20625;-79
2022/12/05 02:19:19;;;;;;;3.75;3.53;;;2.90;99.90;;;;;;5081393;28;20288;-79
2022/12/05 02:22:03;;;;;;;0.50;0.40;;;2.90;99.90;;;;;;5065939;28;20222;-79
2022/12/05 02:25:04;;;;;;;3.70;2.67;;;3.00;99.90;;;;;;5056569;28;20237;-79
2022/12/05 02:27:48;;;;;;;2.35;2.25;;;3.00;99.90;;;;;;5039882;28;20728;-80
2022/12/05 02:30:18;;;;;;;1.10;1.10;;;2.90;99.90;;;;;;5072511;28;20198;-80
2022/12/05 02:33:03;;;;;;;0.60;0.60;;;2.90;99.90;;;;;;5067478;28;20217;-80
2022/12/05 02:35:52;;;;;;;0.80;0.77;;;2.90;99.90;;;;;;5056570;28;20270;-78
2022/12/05 02:38:28;;;;;;;3.45;3.28;;;2.90;99.90;;;;;;5065599;28;20210;-79
2022/12/05 02:41:04;;;;;;;2.47;2.38;;;2.90;99.90;;;;;;5069530;28;20539;-80
2022/12/05 02:43:37;;;;;;;1.58;1.48;;;3.00;99.90;;;;;;5075514;28;20218;-80
2022/12/05 02:46:10;;;;;;;0.73;0.73;;;3.00;99.90;;;;;;5061238;28;20185;-78
2022/12/05 02:48:38;;;;;;;0.50;0.47;;;3.00;99.90;;;;;;5079707;28;20179;-80
2022/12/05 02:51:07;;;;;;;0.80;0.80;;;3.00;99.90;;;;;;5075794;28;20213;-80
2022/12/05 02:53:37;;;;;;;0.75;0.75;;;2.90;99.90;;;;;;5074591;28;20214;-79
2022/12/05 02:56:05;;;;;;;3.08;1.70;;;2.80;99.90;;;;;;5070047;28;20748;-79
2022/12/05 02:58:36;;;;;;;1.55;1.45;;;2.80;99.90;;;;;;5055613;28;20246;-79
2022/12/05 03:01:03;;;;;;;5.57;5.05;;;2.70;99.90;;;;;;5066248;28;20232;-78
2022/12/05 03:03:33;;;;;;;0.50;0.40;;;2.80;99.90;;;;;;5068290;28;20211;-79
2022/12/05 03:06:05;;;;;;;0.70;0.57;;;2.80;99.90;;;;;;5055538;28;20262;-80
2022/12/05 03:08:37;;;;;;;1.40;1.40;;;2.80;99.90;;;;;;5056795;28;20201;-78
2022/12/05 03:11:05;;;;;;;0.50;0.50;;;2.80;99.90;;;;;;5062014;28;20758;-80
2022/12/05 03:13:37;;;;;;;3.60;3.30;;;2.80;99.90;;;;;;5067632;28;20230;-80
2022/12/05 03:16:07;;;;;;;0.68;0.68;;;2.80;99.90;;;;;;5075439;28;20273;-79
2022/12/05 03:18:39;;;;;;;0.80;0.68;;;2.80;99.90;;;;;;5077305;28;20198;-81
2022/12/05 03:21:13;;;;;;;0.50;0.40;;;3.00;99.90;;;;;;5074406;28;20201;-78
2022/12/05 03:23:44;;;;;;;1.58;1.48;;;3.00;99.90;;;;;;5065699;28;20212;-77
2022/12/05 03:26:20;;;;;;;2.30;2.17;;;3.00;99.90;;;;;;5075633;28;20571;-76
2022/12/05 03:29:00;;;;;;;4.50;4.15;;;2.90;99.90;;;;;;5075824;28;20216;-81
2022/12/05 03:31:34;;;;;;;0.70;0.60;;;2.90;99.90;;;;;;5077754;28;20188;-79
2022/12/05 03:34:06;;;;;;;0.50;0.40;;;2.90;99.90;;;;;;5069661;28;20206;-80
2022/12/05 03:36:41;;;;;;;1.50;1.15;;;2.90;99.90;;;;;;5074059;28;20567;-80
2022/12/05 03:39:15;;;;;;;7.60;2.58;;;3.00;99.90;;;;;;5075182;28;20266;-79
2022/12/05 03:41:49;;;;;;;1.90;1.80;;;3.00;99.90;;;;;;5075790;28;20632;-79
2022/12/05 03:44:20;;;;;;;0.50;0.50;;;3.00;99.90;;;;;;5073058;28;20324;-80
2022/12/05 03:46:52;;;;;;;0.50;0.50;;;3.00;99.90;;;;;;5067557;28;20551;-80
2022/12/05 03:49:27;;;;;;;1.75;1.65;;;3.00;99.90;;;;;;5075969;28;20250;-81
2022/12/05 03:51:58;;;;;;;0.55;0.52;;;3.00;99.90;;;;;;5075995;28;20202;-79
2022/12/05 03:54:30;;;;;;;0.70;0.70;;;3.00;99.90;;;;;;5073885;28;20298;-80
2022/12/05 03:57:02;;;;;;;2.97;1.25;;;2.90;99.90;;;;;;5068603;28;20313;-79
2022/12/05 03:59:34;;;;;;;2.35;1.55;;;2.80;99.90;;;;;;5073547;28;20215;-81
2022/12/05 04:02:05;;;;;;;0.60;0.60;;;2.80;99.90;;;;;;5072533;28;20274;-80
2022/12/05 04:04:37;;;;;;;0.60;0.60;;;2.80;99.90;;;;;;5062637;28;20248;-80
2022/12/05 04:07:07;;;;;;;0.50;0.50;;;2.80;99.90;;;;;;5073053;28;20282;-80
2022/12/05 04:09:39;;;;;;;0.50;0.50;;;2.90;99.90;;;;;;5057613;28;20281;-82
2022/12/05 04:12:10;;;;;;;0.50;0.50;;;2.90;99.90;;;;;;5057470;28;20249;-77
2022/12/05 04:14:42;;;;;;;0.88;0.88;;;2.80;99.90;;;;;;5069936;28;20286;-79
2022/12/05 04:17:15;;;;;;;0.50;0.47;;;2.80;99.90;;;;;;5061819;28;20216;-80
2022/12/05 04:22:32;;;;;;;0.50;0.50;;;2.90;99.90;;;;;;5076639;28;20220;-79
2022/12/05 04:27:53;;;;;;;0.50;0.40;;;2.90;99.90;;;;;;5067144;28;20182;-80
2022/12/05 04:30:22;;;;;;;0.50;0.40;;;2.80;99.90;;;;;;5075272;28;20190;-79
2022/12/05 04:32:58;;;;;;;0.80;0.80;;;2.90;99.90;;;;;;5075688;28;20579;-80
2022/12/05 04:35:32;;;;;;;1.00;1.00;;;2.80;99.90;;;;;;5077142;28;20572;-80
2022/12/05 04:38:04;;;;;;;0.50;0.40;;;2.80;99.90;;;;;;5072089;28;20305;-80
2022/12/05 04:40:37;;;;;;;0.50;0.40;;;2.80;99.90;;;;;;5058625;28;20526;-81
2022/12/05 04:43:06;;;;;;;0.50;0.40;;;2.80;99.90;;;;;;5061416;28;20248;-81
2022/12/05 04:45:34;;;;;;;0.50;0.40;;;2.80;99.90;;;;;;5072956;28;20228;-80
2022/12/05 04:48:05;;;;;;;0.50;0.40;;;2.80;99.90;;;;;;5070856;28;20198;-79
2022/12/05 04:50:34;;;;;;;0.50;0.40;;;2.80;99.90;;;;;;5064514;28;20547;-80
2022/12/05 04:53:03;;;;;;;2.80;2.60;;;2.80;99.90;;;;;;5053777;28;20708;-79
2022/12/05 04:55:33;;;;;;;0.50;0.40;;;2.80;99.90;;;;;;5052497;28;20612;-80
2022/12/05 04:58:07;;;;;;;0.68;0.68;;;2.90;99.90;;;;;;5060666;28;20211;-80
2022/12/05 05:00:42;;;;;;;4.78;1.63;;;2.80;99.90;;;;;;5071894;28;20261;-79
2022/12/05 05:03:14;;;;;;;0.80;0.80;;;2.80;99.90;;;;;;5057449;28;20277;-77
2022/12/05 05:05:46;;;;;;;0.50;0.50;;;2.80;99.90;;;;;;5061265;28;20266;-78
2022/12/05 05:08:17;;;;;;;2.45;2.35;;;2.80;99.90;;;;;;5062737;28;20186;-79
2022/12/05 05:10:52;;;;;;;2.55;2.45;;;2.80;99.90;;;;;;5080581;28;20197;-79
2022/12/05 05:13:18;;;;;;;0.50;0.40;;;2.80;99.90;;;;;;5075708;28;20232;-80
2022/12/05 05:15:45;;;;;;;6.53;2.95;;;2.80;99.90;;;;;;5075752;28;20194;-78
2022/12/05 05:18:12;;;;;;;0.50;0.40;;;2.80;99.90;;;;;;5077730;28;20216;-81
2022/12/05 05:20:39;;;;;;;0.50;0.40;;;2.80;99.90;;;;;;5074534;28;20214;-79
2022/12/05 05:23:07;;;;;;;0.60;0.60;;;2.80;99.90;;;;;;5076763;28;20217;-78
2022/12/05 05:25:34;;;;;;;1.40;1.35;;;2.70;99.90;;;;;;5075091;28;20196;-79
2022/12/05 05:28:01;;;;;;;0.50;0.40;;;2.70;99.90;;;;;;5079315;28;20574;-80
2022/12/05 05:30:27;;;;;;;0.50;0.40;;;2.80;99.90;;;;;;5076312;28;20275;-77
2022/12/05 05:32:54;;;;;;;0.50;0.40;;;2.80;99.90;;;;;;5070938;28;20273;-80
2022/12/05 05:35:21;;;;;;;0.70;0.70;;;2.80;99.90;;;;;;5077861;28;20253;-80
2022/12/05 05:37:48;;;;;;;4.47;3.55;;;2.80;99.90;;;;;;5076235;28;20257;-79
2022/12/05 05:40:16;;;;;;;0.50;0.40;;;2.80;99.90;;;;;;5075831;28;20197;-78
2022/12/05 05:42:45;;;;;;;0.50;0.40;;;2.80;99.90;;;;;;5077408;28;20306;-78
2022/12/05 05:45:13;;;;;;;1.67;1.30;;;2.70;99.90;;;;;;5062520;28;20198;-76
2022/12/05 05:47:40;;;;;;;9.57;9.18;;;2.70;99.90;;;;;;5077107;28;20257;-78
2022/12/05 05:50:08;;;;;;;0.50;0.40;;;2.80;99.90;;;;;;5079159;28;20284;-78
2022/12/05 05:52:35;;;;;;;0.50;0.40;;;2.80;99.90;;;;;;5080106;28;20225;-80
2022/12/05 05:55:04;;;;;;;2.15;2.05;;;2.80;99.90;;;;;;5069464;28;20278;-79
2022/12/05 05:57:32;;;;;;;0.50;0.43;;;2.80;99.90;;;;;;5064989;28;20196;-79
2022/12/05 05:59:59;;;;;;;0.73;0.73;;;2.80;99.90;;;;;;5075644;28;20284;-80
2022/12/05 06:02:30;;;;;;;0.50;0.40;;;2.80;99.90;;;;;;5060567;28;20201;-78
2022/12/05 06:04:57;;;;;;;0.50;0.40;;;2.90;99.90;;;;;;5059541;28;20189;-81
2022/12/05 06:07:24;;;;;;;0.50;0.50;;;2.90;99.90;;;;;;5060451;28;20195;-78
2022/12/05 06:09:51;;;;;;;2.45;2.35;;;2.90;99.90;;;;;;5081737;28;20194;-79
2022/12/05 06:12:18;;;;;;;0.50;0.40;;;3.00;99.90;;;;;;5065931;28;20289;-79
2022/12/05 06:14:47;;;;;;;0.50;0.40;;;2.90;99.90;;;;;;5079474;28;20186;-79
2022/12/05 06:17:14;;;;;;;1.08;1.08;;;2.90;99.90;;;;;;5082820;28;20285;-77
2022/12/05 06:19:41;;;;;;;0.60;0.60;;;2.80;99.90;;;;;;5080777;28;20300;-80
2022/12/05 06:22:08;;;;;;;0.50;0.40;;;2.80;99.90;;;;;;5081258;28;20558;-77
2022/12/05 06:24:34;;;;;;;4.75;4.53;;;2.80;99.90;;;;;;5080813;28;20193;-80
2022/12/05 06:27:01;;;;;;;0.50;0.40;;;2.70;99.90;;;;;;5083757;28;20281;-82
2022/12/05 06:29:28;;;;;;;1.15;0.95;;;2.70;99.90;;;;;;5081154;28;20188;-79
2022/12/05 06:31:56;;;;;;;3.60;3.42;;;2.70;99.90;;;;;;5078917;28;20250;-83
2022/12/05 06:34:23;;;;;;;0.50;0.40;;;2.70;99.90;;;;;;5062616;28;20249;-81
2022/12/05 06:36:50;;;;;;;0.50;0.40;;;2.70;99.90;;;;;;5063195;28;20222;-80
2022/12/05 06:39:17;;;;;;;0.50;0.40;;;2.60;99.90;;;;;;5060903;28;20211;-79
2022/12/05 06:41:43;;;;;;;0.50;0.40;;;2.70;99.90;;;;;;5076638;28;20284;-81
2022/12/05 06:44:10;;;;;;;0.50;0.40;;;2.60;99.90;;;;;;5079905;28;20300;-76
2022/12/05 06:46:37;;;;;;;0.50;0.40;;;2.50;99.90;;;;;;5079459;28;20575;-80
2022/12/05 06:49:05;;;;;;;1.30;1.30;;;2.50;99.90;;;;;;5076908;28;20189;-83
2022/12/05 06:51:32;;;;;;;1.08;1.08;;;2.50;99.90;;;;;;5075744;28;20220;-80
2022/12/05 06:53:59;;;;;;;0.50;0.40;;;2.60;99.90;;;;;;5079680;28;20224;-79
2022/12/05 06:56:26;;;;;;;1.02;1.02;;;2.60;99.90;;;;;;5078613;28;20281;-80
2022/12/05 06:58:54;;;;;;;0.50;0.40;;;2.60;99.90;;;;;;5059801;28;20216;-81
2022/12/05 07:01:40;;;;;;;0.50;0.40;;;2.60;99.90;;;;;;5058931;28;20746;-79
2022/12/05 07:04:12;;;;;;;0.50;0.40;;;2.50;99.90;;;;;;5072201;28;20210;-81
2022/12/05 07:06:39;;;;;;;9.60;8.60;;;2.50;99.90;;;;;;5062541;28;20269;-80
2022/12/05 07:09:07;;;;;;;0.50;0.40;;;2.50;99.90;;;;;;5062592;28;20201;-79
2022/12/05 07:11:35;;;;;;;0.50;0.40;;;2.50;99.90;;;;;;5060746;28;20289;-80
2022/12/05 07:14:02;;;;;;;0.57;0.55;;;2.40;99.90;;;;;;5066613;28;20334;-80
2022/12/05 07:16:29;;;;;;;0.60;0.50;;;2.40;99.90;;;;;;5064061;28;20201;-79
2022/12/05 07:18:56;;;;;;;3.08;2.88;;;2.40;99.90;;;;;;5077279;28;20316;-80
2022/12/05 07:21:24;;;;;;;2.17;2.08;;;2.40;99.90;;;;;;5073538;28;20278;-79
2022/12/05 07:23:51;;;;;;;0.50;0.40;;;2.50;99.90;;;;;;5063859;28;20221;-78
2022/12/05 07:26:20;;;;;;;2.17;2.08;;;2.40;99.90;;;;;;5055712;28;20201;-79
2022/12/05 07:28:47;;;;;;;0.50;0.40;;;2.40;99.90;;;;;;5057491;28;20275;-80
2022/12/05 07:31:16;;;;;;;0.50;0.40;;;2.40;99.90;;;;;;5060998;28;20283;-80
2022/12/05 07:33:43;;;;;;;0.50;0.45;;;2.50;99.90;;;;;;5076297;28;20278;-80
2022/12/05 07:36:12;;;;;;;0.50;0.40;;;2.50;99.90;;;;;;5073149;28;20210;-79
2022/12/05 07:38:40;;;;;;;1.70;1.02;;;2.40;99.90;;;;;;5059341;28;20294;-79
2022/12/05 07:41:09;;;;;;;2.25;2.05;;;2.40;99.90;;;;;;5056314;28;20197;-79
2022/12/05 07:43:35;;;;;;;1.05;1.05;;;2.40;99.90;;;;;;5064716;28;20678;-80
2022/12/05 07:46:03;;;;;;;0.95;0.88;;;2.40;99.90;;;;;;5072457;28;20194;-79
2022/12/05 07:48:30;;;;;;;0.50;0.47;;;2.30;99.90;;;;;;5059015;28;20254;-80
2022/12/05 07:51:00;;;;;;;0.50;0.40;;;2.30;99.90;;;;;;5056936;28;20564;-80
2022/12/05 07:53:27;;;;;;;0.50;0.40;;;2.20;99.90;;;;;;5063554;28;20636;-78
2022/12/05 07:55:58;;;;;;;0.50;0.40;;;2.20;99.90;;;;;;5062179;28;20201;-80
2022/12/05 07:58:25;;;;;;;2.35;2.25;;;2.10;99.90;;;;;;5075284;28;20635;-80
2022/12/05 08:00:52;;;;;;;0.50;0.40;;;2.00;99.90;;;;;;5054143;28;20270;-79
2022/12/05 08:03:18;;;;;;;2.05;1.95;;;1.90;99.90;;;;;;5054966;28;20350;-81
2022/12/05 08:05:45;;;;;;;0.50;0.40;;;1.70;99.90;;;;;;5054951;28;20289;-79
2022/12/05 08:08:12;;;;;;;2.10;2.00;;;1.60;99.90;;;;;;5063698;28;20199;-79
2022/12/05 08:10:39;;;;;;;1.35;1.30;;;1.50;99.90;;;;;;5054466;28;20259;-80
2022/12/05 08:13:07;;;;;;;0.50;0.40;;;1.50;99.90;;;;;;5059348;28;20225;-81
2022/12/05 08:15:35;;;;;;;0.50;0.40;;;1.50;99.90;;;;;;5072403;28;20194;-80
2022/12/05 08:18:02;;;;;;;0.93;0.93;;;1.40;99.90;;;;;;5065197;28;20205;-81
2022/12/05 08:20:29;;;;;;;0.50;0.40;;;1.50;99.90;;;;;;5074954;28;20214;-80
2022/12/05 08:22:56;;;;;;;0.50;0.40;;;1.50;99.90;;;;;;5075377;28;20233;-82
2022/12/05 08:25:23;;;;;;;0.50;0.40;;;1.50;99.90;;;;;;5073063;28;20286;-80
2022/12/05 08:27:49;;;;;;;1.15;0.80;;;1.60;99.90;;;;;;5072078;28;20197;-79
2022/12/05 08:30:18;;;;;;;0.50;0.50;;;1.50;99.90;;;;;;5072572;28;20201;-79
2022/12/05 08:32:45;;;;;;;0.50;0.40;;;1.50;99.90;;;;;;5055347;28;20267;-79
2022/12/05 08:35:12;;;;;;;0.60;0.60;;;1.40;99.90;;;;;;5053784;28;20198;-80
2022/12/05 08:37:39;;;;;;;0.50;0.40;;;1.40;99.90;;;;;;5054643;28;20187;-80
2022/12/05 08:40:07;;;;;;;0.50;0.40;;;1.40;99.90;;;;;;5067745;28;20210;-80
2022/12/05 08:42:33;;;;;;;7.45;1.95;;;1.50;99.90;;;;;;5072181;28;20216;-80
2022/12/05 08:45:00;;;;;;;0.50;0.40;;;1.50;99.90;;;;;;5065744;28;20208;-80
2022/12/05 08:47:28;;;;;;;0.50;0.40;;;1.50;99.90;;;;;;5073402;28;20197;-79
2022/12/05 08:49:55;;;;;;;0.50;0.40;;;1.60;99.90;;;;;;5071933;28;20196;-81
2022/12/05 08:52:22;;;;;;;0.50;0.40;;;1.70;99.90;;;;;;5065059;28;20691;-80
2022/12/05 08:54:49;;;;;;;0.50;0.50;;;1.70;99.90;;;;;;5072973;28;20205;-78
2022/12/05 08:57:16;;;;;;;1.58;1.48;;;1.80;99.90;;;;;;5073737;28;20292;-79
2022/12/05 08:59:43;;;;;;;0.95;0.95;;;1.80;99.90;;;;;;5052198;28;20722;-79
2022/12/05 09:02:10;;;;;;;0.50;0.40;;;1.90;99.90;;;;;;5072626;28;20190;-79
2022/12/05 09:04:38;;;;;;;0.50;0.50;;;1.90;99.90;;;;;;5061492;28;20240;-81
2022/12/05 09:07:07;;;;;;;0.50;0.40;;;1.90;99.90;;;;;;5058516;28;20202;-79
2022/12/05 09:09:34;;;;;;;0.50;0.40;;;2.00;99.90;;;;;;5067826;28;20715;-81
2022/12/05 09:12:01;;;;;;;0.50;0.40;;;2.00;99.90;;;;;;5073261;28;20603;-81
2022/12/05 09:14:31;;;;;;;2.97;2.78;;;1.90;99.90;;;;;;5064361;28;20227;-81
2022/12/05 09:17:00;;;;;;;0.50;0.40;;;2.00;99.90;;;;;;5066916;28;20212;-81
2022/12/05 09:19:27;;;;;;;0.50;0.40;;;2.00;99.90;;;;;;5081830;28;20210;-81
2022/12/05 09:21:57;;;;;;;0.50;0.50;;;2.00;99.90;;;;;;5084742;28;20221;-80
2022/12/05 09:24:24;;;;;;;0.50;0.40;;;1.90;99.90;;;;;;5062148;28;20585;-81
2022/12/05 09:26:51;;;;;;;3.85;3.65;;;2.00;99.90;;;;;;5054316;28;20260;-80
2022/12/05 09:29:18;;;;;;;0.50;0.40;;;2.00;99.90;;;;;;5072966;28;20276;-81
2022/12/05 09:31:48;;;;;;;0.50;0.40;;;2.00;99.90;;;;;;5067577;28;20558;-81
2022/12/05 09:34:16;;;;;;;0.50;0.40;;;2.00;99.90;;;;;;5071545;28;20710;-80
2022/12/05 09:36:44;;;;;;;0.50;0.40;;;2.00;99.90;;;;;;5054786;28;20195;-79
2022/12/05 09:39:12;;;;;;;0.50;0.40;;;2.00;99.90;;;;;;5053541;28;20301;-81
2022/12/05 09:42:08;;;;;;;0.50;0.40;;;2.10;99.90;;;;;;5055522;28;20218;-80
2022/12/05 09:44:56;;;;;;;0.50;0.40;;;2.20;99.90;;;;;;5062833;28;20232;-80
2022/12/05 09:47:34;;;;;;;0.50;0.40;;;2.30;99.90;;;;;;5073398;28;20257;-80
2022/12/05 09:50:12;;;;;;;0.50;0.40;;;2.20;99.90;;;;;;5068586;28;20511;-78
2022/12/05 09:52:43;;;;;;;0.70;0.70;;;2.20;99.90;;;;;;5061724;28;20217;-78
2022/12/05 09:55:15;;;;;;;0.50;0.40;;;2.40;99.90;;;;;;5061145;28;20285;-80
2022/12/05 09:57:48;;;;;;;0.50;0.40;;;2.40;99.90;;;;;;5061172;28;20194;-78
2022/12/05 10:00:16;;;;;;;2.90;2.80;;;2.50;99.90;;;;;;5054247;28;20199;-79
2022/12/05 10:02:54;;;;;;;0.50;0.40;;;2.50;99.90;;;;;;5054395;28;20569;-79
2022/12/05 10:05:27;;;;;;;0.50;0.40;;;2.50;99.90;;;;;;5062648;28;20200;-79
2022/12/05 10:08:02;;;;;;;0.52;0.52;;;2.50;99.90;;;;;;5066894;28;20240;-78
2022/12/05 10:10:38;;;;;;;22.42;21.08;;;2.50;99.90;;;;;;5072124;28;20178;-78
2022/12/05 10:13:29;;;;;;;0.50;0.40;;;2.50;99.90;;;;;;5074455;28;20232;-80
2022/12/05 10:16:00;;;;;;;0.73;0.73;;;2.40;99.90;;;;;;5064565;28;20272;-77
2022/12/05 10:18:37;;;;;;;0.50;0.40;;;2.40;99.90;;;;;;5067650;28;20794;-78
2022/12/05 10:21:10;;;;;;;0.50;0.40;;;2.50;99.90;;;;;;5072175;28;20278;-79
2022/12/05 10:23:44;;;;;;;0.50;0.40;;;2.50;99.90;;;;;;5057115;28;20225;-78
2022/12/05 10:26:15;;;;;;;0.50;0.40;;;2.50;99.90;;;;;;5058048;28;20194;-79
2022/12/05 10:28:51;;;;;;;0.50;0.40;;;2.50;99.90;;;;;;5072018;28;20205;-80
2022/12/05 10:31:22;;;;;;;0.50;0.40;;;2.60;99.90;;;;;;5054503;28;20659;-79
2022/12/05 10:33:55;;;;;;;0.50;0.40;;;2.70;99.90;;;;;;5054679;28;20222;-79
2022/12/05 10:36:25;;;;;;;6.10;4.18;;;2.70;99.90;;;;;;5055231;28;20183;-80
2022/12/05 10:38:53;;;;;;;1.67;1.58;;;2.60;99.90;;;;;;5066288;28;20190;-78
2022/12/05 10:41:21;;;;;;;0.50;0.40;;;2.80;99.90;;;;;;5073588;28;20224;-79
2022/12/05 10:43:48;;;;;;;0.50;0.40;;;2.70;99.90;;;;;;5073809;28;20218;-79
2022/12/05 10:46:17;;;;;;;0.50;0.40;;;2.80;99.90;;;;;;5073217;28;20197;-80
2022/12/05 10:48:44;;;;;;;0.50;0.40;;;2.90;99.90;;;;;;5071663;28;20234;-80
2022/12/05 10:51:15;;;;;;;0.50;0.40;;;2.90;99.90;;;;;;5060313;28;20203;-80
2022/12/05 10:53:44;;;;;;;0.50;0.40;;;2.90;99.90;;;;;;5059436;28;20578;-79
2022/12/05 10:56:51;;;;;;;0.50;0.40;;;2.90;99.90;;;;;;5067175;28;20305;-79
2022/12/05 10:59:21;;;;;;;0.50;0.40;;;3.00;99.90;;;;;;5062064;28;20201;-79
2022/12/05 11:01:50;;;;;;;0.50;0.50;;;3.00;99.90;;;;;;5062603;28;20187;-79
2022/12/05 11:04:26;;;;;;;0.55;0.55;;;2.90;99.90;;;;;;5052745;28;20356;-80
2022/12/05 11:06:59;;;;;;;0.50;0.40;;;2.80;99.90;;;;;;5054135;28;20506;-80
2022/12/05 11:09:28;;;;;;;0.50;0.40;;;2.80;99.90;;;;;;5062297;28;20196;-81
2022/12/05 11:12:12;;;;;;;0.50;0.50;;;2.90;99.90;;;;;;5061018;28;20190;-80
2022/12/05 11:14:52;;;;;;;1.25;1.25;;;2.80;99.90;;;;;;5070033;28;20189;-79
2022/12/05 11:17:26;;;;;;;0.60;0.50;;;2.80;99.90;;;;;;5073719;28;20281;-74
2022/12/05 11:19:52;;;;;;;0.50;0.40;;;2.70;99.90;;;;;;5069084;28;20614;-78
2022/12/05 11:22:20;;;;;;;1.60;1.50;;;2.60;99.90;;;;;;5066361;28;20191;-80
2022/12/05 11:24:47;;;;;;;1.60;1.50;;;2.60;99.90;;;;;;5053133;28;20224;-80
2022/12/05 11:27:26;;;;;;;0.50;0.40;;;2.50;99.90;;;;;;5053099;28;20286;-79
2022/12/05 11:30:00;;;;;;;0.93;0.93;;;2.30;99.90;;;;;;5056394;28;20722;-77
2022/12/05 11:32:29;;;;;;;0.50;0.40;;;2.30;99.90;;;;;;5070821;28;20201;-79
2022/12/05 11:35:05;;;;;;;0.50;0.40;;;2.10;99.90;;;;;;5063885;28;20186;-79
2022/12/05 11:37:37;;;;;;;0.50;0.40;;;2.00;99.90;;;;;;5073221;28;20276;-80
2022/12/05 11:40:14;;;;;;;0.50;0.40;;;2.00;99.90;;;;;;5073378;28;20206;-79
2022/12/05 11:42:52;;;;;;;8.95;8.30;;;1.90;99.90;;;;;;5063204;28;20247;-80
2022/12/05 11:45:40;;;;;;;0.50;0.50;;;1.90;99.90;;;;;;5056143;28;20183;-79
2022/12/05 11:48:21;;;;;;;0.50;0.40;;;2.00;99.90;;;;;;5053171;28;20276;-78
2022/12/05 11:51:01;;;;;;;0.50;0.40;;;2.00;99.90;;;;;;5053145;28;20601;-79
2022/12/05 11:53:52;;;;;;;0.52;0.52;;;1.90;99.90;;;;;;5066301;28;20218;-77
2022/12/05 11:56:34;;;;;;;0.50;0.40;;;1.90;99.90;;;;;;5072284;28;20268;-76
2022/12/05 11:59:18;;;;;;;0.50;0.40;;;1.80;99.90;;;;;;5072474;28;20183;-79
2022/12/05 12:01:55;;;;;;;0.50;0.40;;;1.80;99.90;;;;;;5072692;28;20292;-78
2022/12/05 12:04:42;;;;;;;0.50;0.50;;;1.80;99.90;;;;;;5069512;28;20248;-78
2022/12/05 12:07:33;;;;;;;0.50;0.40;;;1.70;99.90;;;;;;5052605;28;20289;-78
2022/12/05 12:10:13;;;;;;;0.50;0.40;;;1.70;99.90;;;;;;5051846;28;20541;-78
2022/12/05 12:12:49;;;;;;;1.23;1.23;;;1.60;99.90;;;;;;5052702;28;20332;-79
2022/12/05 12:15:40;;;;;;;0.50;0.40;;;1.60;99.90;;;;;;5069896;28;20196;-78
2022/12/05 12:18:18;;;;;;;0.50;0.40;;;1.40;99.90;;;;;;5072256;28;20267;-78
2022/12/05 12:20:59;;;;;;;2.55;2.45;;;1.40;99.90;;;;;;5071615;28;20288;-79
2022/12/05 12:23:42;;;;;;;0.50;0.40;;;1.40;99.90;;;;;;5072654;28;20300;-78
2022/12/05 12:26:14;;;;;;;0.50;0.40;;;1.40;99.90;;;;;;5070504;28;20193;-79
2022/12/05 12:28:46;;;;;;;0.50;0.40;;;1.40;99.90;;;;;;5053749;28;20205;-79
2022/12/05 12:31:44;;;;;;;3.08;1.95;;;1.30;99.90;;;;;;5051752;28;20178;-79
2022/12/05 12:34:42;;;;;;;0.73;0.70;;;1.30;99.90;;;;;;5051577;28;20360;-79
2022/12/05 12:37:18;;;;;;;1.35;1.25;;;1.30;99.90;;;;;;5070777;28;20193;-79
2022/12/05 12:39:52;;;;;;;0.70;0.70;;;1.30;99.90;;;;;;5071398;28;20197;-78
2022/12/05 12:42:23;;;;;;;0.60;0.60;;;1.30;99.90;;;;;;5067464;28;20181;-80
2022/12/05 12:45:23;;;;;;;2.88;2.67;;;1.20;99.90;;;;;;5076482;28;20201;-79
2022/12/05 12:48:04;;;;;;;1.20;1.15;;;1.20;99.90;;;;;;5078797;28;20194;-79
2022/12/05 12:50:34;;;;;;;0.50;0.40;;;1.20;99.90;;;;;;5080259;28;20197;-79
2022/12/05 12:53:26;;;;;;;0.50;0.40;;;1.20;99.90;;;;;;5072491;28;20222;-77
2022/12/05 12:56:01;;;;;;;0.50;0.40;;;1.20;99.90;;;;;;5051810;28;20605;-79
2022/12/05 12:58:46;;;;;;;0.60;0.60;;;1.20;99.90;;;;;;5052628;28;20186;-79
2022/12/05 13:01:27;;;;;;;0.50;0.40;;;1.10;99.90;;;;;;5064263;28;20201;-80
2022/12/05 13:04:01;;;;;;;0.60;0.60;;;1.10;99.90;;;;;;5064353;28;20308;-79
2022/12/05 13:06:35;;;;;;;0.50;0.50;;;1.10;99.90;;;;;;5072350;28;20201;-79
2022/12/05 13:09:06;;;;;;;0.60;0.60;;;1.10;99.90;;;;;;5072253;28;20217;-79
2022/12/05 13:11:37;;;;;;;0.50;0.40;;;1.20;99.90;;;;;;5070882;28;20211;-80
2022/12/05 13:14:11;;;;;;;0.50;0.40;;;1.20;99.90;;;;;;5064825;28;20233;-79
2022/12/05 13:16:42;;;;;;;0.50;0.40;;;1.30;99.90;;;;;;5069601;28;20277;-79
2022/12/05 13:19:23;;;;;;;0.50;0.40;;;1.30;99.90;;;;;;5065183;28;20204;-80
2022/12/05 13:21:52;;;;;;;0.50;0.40;;;1.30;99.90;;;;;;5051378;28;20222;-77
2022/12/05 13:24:21;;;;;;;0.50;0.40;;;1.30;99.90;;;;;;5061377;28;20213;-79